createdAt,value
2022-08-16T00:01:16.018Z,26.07
2022-08-16T00:03:42.978Z,26.05
2022-08-16T00:06:10.045Z,26.04
2022-08-16T00:08:38.174Z,26.03
2022-08-16T00:11:15.812Z,26.00
2022-08-16T00:13:53.322Z,25.98
2022-08-16T00:17:06.637Z,25.97
2022-08-16T00:19:22.909Z,25.94
2022-08-16T00:21:53.164Z,25.92
2022-08-16T00:24:32.166Z,25.91
2022-08-16T00:27:01.092Z,25.89
2022-08-16T00:29:29.888Z,25.87
2022-08-16T00:32:01.446Z,25.84
2022-08-16T00:34:43.195Z,25.81
2022-08-16T00:37:21.061Z,25.77
2022-08-16T00:39:57.138Z,25.75
2022-08-16T00:42:29.732Z,25.73
2022-08-16T00:45:10.221Z,25.69
2022-08-16T00:47:49.292Z,25.66
2022-08-16T00:50:20.680Z,25.62
2022-08-16T00:52:51.307Z,25.59
2022-08-16T00:55:22.304Z,25.57
2022-08-16T00:58:00.156Z,25.53
2022-08-16T01:00:33.418Z,25.51
2022-08-16T01:03:11.732Z,25.49
2022-08-16T01:05:40.452Z,25.47
2022-08-16T01:08:35.142Z,25.43
2022-08-16T01:11:00.086Z,25.41
2022-08-16T01:13:33.066Z,25.38
2022-08-16T01:16:10.278Z,25.36
2022-08-16T01:18:45.669Z,25.35
2022-08-16T01:21:50.677Z,25.32
2022-08-16T01:24:52.687Z,25.25
2022-08-16T01:27:27.704Z,25.23
2022-08-16T01:30:26.509Z,25.20
2022-08-16T01:33:02.832Z,25.19
2022-08-16T01:35:56.654Z,25.17
2022-08-16T01:38:44.957Z,25.14
2022-08-16T01:41:30.459Z,25.13
2022-08-16T01:44:01.014Z,25.09
2022-08-16T01:46:45.203Z,25.09
2022-08-16T01:49:18.643Z,25.07
2022-08-16T01:51:55.064Z,25.05
2022-08-16T01:54:30.702Z,25.04
2022-08-16T01:56:59.590Z,25.02
2022-08-16T01:59:26.548Z,25.01
2022-08-16T02:02:00.227Z,25.00
2022-08-16T02:04:48.816Z,24.98
2022-08-16T02:07:18.419Z,24.97
2022-08-16T02:09:58.648Z,24.95
2022-08-16T02:12:39.881Z,24.94
2022-08-16T02:15:25.372Z,24.92
2022-08-16T02:17:58.300Z,24.90
2022-08-16T02:20:28.087Z,24.89
2022-08-16T02:23:05.591Z,24.87
2022-08-16T02:25:51.884Z,24.87
2022-08-16T02:28:23.696Z,24.83
2022-08-16T02:30:52.290Z,24.82
2022-08-16T02:33:24.449Z,24.85
2022-08-16T02:35:55.151Z,24.85
2022-08-16T02:38:27.400Z,24.87
2022-08-16T02:40:56.526Z,24.88
2022-08-16T02:43:29.762Z,24.89
2022-08-16T02:46:01.266Z,24.90
2022-08-16T02:48:31.123Z,24.91
2022-08-16T02:51:06.155Z,24.92
2022-08-16T02:53:35.485Z,24.92
2022-08-16T02:56:02.472Z,24.90
2022-08-16T02:58:29.401Z,24.91
2022-08-16T03:00:57.711Z,24.89
2022-08-16T03:03:26.713Z,24.88
2022-08-16T03:06:39.634Z,24.88
2022-08-16T03:09:01.892Z,24.87
2022-08-16T03:11:28.720Z,24.88
2022-08-16T03:14:02.628Z,24.86
2022-08-16T03:16:38.470Z,24.85
2022-08-16T03:19:09.840Z,24.83
2022-08-16T03:21:38.707Z,24.83
2022-08-16T03:24:28.793Z,24.82
2022-08-16T03:26:57.967Z,24.79
2022-08-16T03:29:30.400Z,24.76
2022-08-16T03:32:01.968Z,24.74
2022-08-16T03:34:30.538Z,24.71
2022-08-16T03:36:58.234Z,24.69
2022-08-16T03:39:25.159Z,24.66
2022-08-16T03:41:59.897Z,24.65
2022-08-16T03:44:44.592Z,24.60
2022-08-16T03:47:19.042Z,24.57
2022-08-16T03:49:51.395Z,24.55
2022-08-16T03:52:20.592Z,24.51
2022-08-16T03:54:58.181Z,24.51
2022-08-16T03:57:32.145Z,24.48
2022-08-16T04:00:35.350Z,24.47
2022-08-16T04:03:08.843Z,24.44
2022-08-16T04:05:41.053Z,24.41
2022-08-16T04:08:23.071Z,24.40
2022-08-16T04:10:54.249Z,24.38
2022-08-16T04:14:00.468Z,24.35
2022-08-16T04:16:26.397Z,24.33
2022-08-16T04:19:01.383Z,24.30
2022-08-16T04:21:33.505Z,24.28
2022-08-16T04:24:02.789Z,24.28
2022-08-16T04:26:32.187Z,24.26
2022-08-16T04:29:16.877Z,24.26
2022-08-16T04:31:56.373Z,24.23
2022-08-16T04:34:27.647Z,24.17
2022-08-16T04:36:56.631Z,24.19
2022-08-16T04:39:24.464Z,24.21
2022-08-16T04:42:11.258Z,24.24
2022-08-16T04:44:53.791Z,24.25
2022-08-16T04:47:24.928Z,24.26
2022-08-16T04:49:52.785Z,24.29
2022-08-16T04:52:32.650Z,24.29
2022-08-16T04:55:06.019Z,24.33
2022-08-16T04:57:33.131Z,24.37
2022-08-16T05:00:30.868Z,24.45
2022-08-16T05:02:55.834Z,24.57
2022-08-16T05:05:23.555Z,24.73
2022-08-16T05:07:58.228Z,24.93
2022-08-16T05:10:29.450Z,25.16
2022-08-16T05:12:58.264Z,25.39
2022-08-16T05:15:26.201Z,25.60
2022-08-16T05:17:58.507Z,25.84
2022-08-16T05:20:39.066Z,26.09
2022-08-16T05:23:13.667Z,26.36
2022-08-16T05:25:48.458Z,26.63
2022-08-16T05:28:18.545Z,26.92
2022-08-16T05:30:45.984Z,27.22
2022-08-16T05:33:18.085Z,27.52
2022-08-16T05:35:55.218Z,27.81
2022-08-16T05:38:33.115Z,28.10
2022-08-16T05:41:07.050Z,28.36
2022-08-16T05:43:43.320Z,28.58
2022-08-16T05:46:29.747Z,28.76
2022-08-16T05:49:05.424Z,28.90
2022-08-16T05:51:38.160Z,29.04
2022-08-16T05:54:07.893Z,29.19
2022-08-16T05:56:37.524Z,29.32
2022-08-16T05:59:06.102Z,29.43
2022-08-16T06:01:37.836Z,29.55
2022-08-16T06:04:13.518Z,29.69
2022-08-16T06:06:56.751Z,29.91
2022-08-16T06:09:42.972Z,30.09
2022-08-16T06:12:27.392Z,30.30
2022-08-16T06:14:59.203Z,30.48
2022-08-16T06:17:42.660Z,30.60
2022-08-16T06:20:18.426Z,30.79
2022-08-16T06:23:03.034Z,30.87
2022-08-16T06:25:36.643Z,30.88
2022-08-16T06:28:17.075Z,30.91
2022-08-16T06:30:58.595Z,30.99
2022-08-16T06:33:25.414Z,31.13
2022-08-16T06:35:54.940Z,31.31
2022-08-16T06:38:32.303Z,31.50
2022-08-16T06:41:12.375Z,31.82
2022-08-16T06:43:41.646Z,32.11
2022-08-16T06:46:31.975Z,32.32
2022-08-16T06:49:05.261Z,32.29
2022-08-16T06:51:48.365Z,32.07
2022-08-16T06:54:16.744Z,31.69
2022-08-16T06:56:43.710Z,31.40
2022-08-16T06:59:10.875Z,31.34
2022-08-16T07:01:43.135Z,31.52
2022-08-16T07:04:13.316Z,31.73
2022-08-16T07:06:59.665Z,31.86
2022-08-16T07:09:29.760Z,32.13
2022-08-16T07:12:05.338Z,32.55
2022-08-16T07:14:33.378Z,33.03
2022-08-16T07:17:00.833Z,33.42
2022-08-16T07:20:01.459Z,33.64
2022-08-16T07:22:37.907Z,33.82
2022-08-16T07:25:11.769Z,34.14
2022-08-16T07:27:40.011Z,34.42
2022-08-16T07:30:38.456Z,34.72
2022-08-16T07:32:58.658Z,34.96
2022-08-16T07:35:26.086Z,35.02
2022-08-16T07:37:53.342Z,35.07
2022-08-16T07:40:36.998Z,35.20
2022-08-16T07:43:07.457Z,35.44
2022-08-16T07:45:34.502Z,35.67
2022-08-16T07:48:11.443Z,35.92
2022-08-16T07:50:56.186Z,36.16
2022-08-16T07:53:31.174Z,36.38
2022-08-16T07:56:04.395Z,36.30
2022-08-16T07:58:34.993Z,35.94
2022-08-16T08:01:10.979Z,35.59
2022-08-16T08:03:47.613Z,35.42
2022-08-16T08:06:18.262Z,35.39
2022-08-16T08:08:51.045Z,35.39
2022-08-16T08:11:19.868Z,35.39
2022-08-16T08:13:49.418Z,35.38
2022-08-16T08:16:19.604Z,35.32
2022-08-16T08:18:50.556Z,35.21
2022-08-16T08:21:26.183Z,35.03
2022-08-16T08:23:54.767Z,34.78
2022-08-16T08:26:22.114Z,34.59
2022-08-16T08:28:51.569Z,34.44
2022-08-16T08:31:19.059Z,34.34
2022-08-16T08:33:47.567Z,34.25
2022-08-16T08:36:33.040Z,34.15
2022-08-16T08:39:00.587Z,34.11
2022-08-16T08:41:28.872Z,34.02
2022-08-16T08:43:56.976Z,33.95
2022-08-16T08:46:25.461Z,33.83
2022-08-16T08:48:59.166Z,33.74
2022-08-16T08:51:35.529Z,33.66
2022-08-16T08:54:06.757Z,33.54
2022-08-16T08:56:37.169Z,33.42
2022-08-16T08:59:13.594Z,33.29
2022-08-16T09:01:57.189Z,33.18
2022-08-16T09:04:27.026Z,33.07
2022-08-16T09:06:55.266Z,32.99
2022-08-16T09:09:23.424Z,32.91
2022-08-16T09:12:04.206Z,32.84
2022-08-16T09:14:35.426Z,32.76
2022-08-16T09:17:11.905Z,32.71
2022-08-16T09:19:52.640Z,32.61
2022-08-16T09:22:23.886Z,32.56
2022-08-16T09:24:52.464Z,32.53
2022-08-16T09:27:26.466Z,32.48
2022-08-16T09:30:00.487Z,32.42
2022-08-16T09:32:31.287Z,32.35
2022-08-16T09:35:01.359Z,32.31
2022-08-16T09:37:30.500Z,32.26
2022-08-16T09:40:31.839Z,32.21
2022-08-16T09:42:56.124Z,32.17
2022-08-16T09:45:27.892Z,32.15
2022-08-16T09:47:58.174Z,32.14
2022-08-16T09:50:36.945Z,32.11
2022-08-16T09:53:15.580Z,32.09
2022-08-16T09:55:49.326Z,32.06
2022-08-16T09:58:37.859Z,32.05
2022-08-16T10:01:08.455Z,32.03
2022-08-16T10:03:37.950Z,32.03
2022-08-16T10:06:26.197Z,32.02
2022-08-16T10:09:05.584Z,32.02
2022-08-16T10:11:56.099Z,32.03
2022-08-16T10:14:38.631Z,32.01
2022-08-16T10:17:06.167Z,32.01
2022-08-16T10:19:33.647Z,32.03
2022-08-16T10:22:04.955Z,32.05
2022-08-16T10:24:33.384Z,32.06
2022-08-16T10:27:26.179Z,32.04
2022-08-16T10:29:59.544Z,32.03
2022-08-16T10:32:30.510Z,32.03
2022-08-16T10:34:58.073Z,32.04
2022-08-16T10:37:36.061Z,32.03
2022-08-16T10:40:28.616Z,32.03
2022-08-16T10:42:56.076Z,32.03
2022-08-16T10:45:23.053Z,32.02
2022-08-16T10:48:02.845Z,32.04
2022-08-16T10:50:32.517Z,32.06
2022-08-16T10:53:00.507Z,32.06
2022-08-16T10:55:40.848Z,32.08
2022-08-16T10:58:16.926Z,32.13
2022-08-16T11:00:46.309Z,32.15
2022-08-16T11:06:06.678Z,32.18
2022-08-16T11:08:40.794Z,32.18
2022-08-16T11:11:19.111Z,32.18
2022-08-16T11:14:11.476Z,32.19
2022-08-16T11:19:22.919Z,32.27
2022-08-16T11:24:43.277Z,32.36
2022-08-16T11:27:23.337Z,32.41
2022-08-16T11:29:55.703Z,32.43
2022-08-16T11:32:29.820Z,32.46
2022-08-16T11:35:10.588Z,32.49
2022-08-16T11:40:32.869Z,32.54
2022-08-16T11:43:04.128Z,32.56
2022-08-16T11:45:33.653Z,32.61
2022-08-16T11:48:03.797Z,32.64
2022-08-16T11:50:33.404Z,32.65
2022-08-16T11:53:08.287Z,32.71
2022-08-16T11:55:38.083Z,32.75
2022-08-16T11:58:08.328Z,32.79
2022-08-16T12:00:51.285Z,32.83
2022-08-16T12:03:29.678Z,32.87
2022-08-16T12:06:25.448Z,32.91
2022-08-16T12:09:01.066Z,32.95
2022-08-16T12:11:31.585Z,32.99
2022-08-16T12:14:04.209Z,33.05
2022-08-16T12:16:34.321Z,33.09
2022-08-16T12:19:04.892Z,33.16
2022-08-16T12:21:57.814Z,33.21
2022-08-16T12:24:19.974Z,33.26
2022-08-16T12:26:46.793Z,33.26
2022-08-16T12:29:13.724Z,33.29
2022-08-16T12:32:01.555Z,33.34
2022-08-16T12:34:29.432Z,33.39
2022-08-16T12:36:56.505Z,33.46
2022-08-16T12:39:23.714Z,33.51
2022-08-16T12:41:57.637Z,33.57
2022-08-16T12:44:26.539Z,33.63
2022-08-16T12:47:17.343Z,33.69
2022-08-16T12:49:44.191Z,33.76
2022-08-16T12:52:32.633Z,33.82
2022-08-16T12:54:59.645Z,33.83
2022-08-16T12:57:36.158Z,33.88
2022-08-16T13:00:26.403Z,33.92
2022-08-16T13:03:02.835Z,34.00
2022-08-16T13:08:03.253Z,34.11
2022-08-16T13:10:36.855Z,34.21
2022-08-16T13:13:06.547Z,34.31
2022-08-16T13:15:55.770Z,34.40
2022-08-16T13:18:33.504Z,34.51
2022-08-16T13:21:03.004Z,34.61
2022-08-16T13:23:30.697Z,34.69
2022-08-16T13:25:58.064Z,34.74
2022-08-16T13:28:24.973Z,34.77
2022-08-16T13:30:55.397Z,34.84
2022-08-16T13:33:30.553Z,34.89
2022-08-16T13:36:00.725Z,34.95
2022-08-16T13:38:32.672Z,35.01
2022-08-16T13:41:08.956Z,35.12
2022-08-16T13:43:38.123Z,35.19
2022-08-16T13:46:06.567Z,35.25
2022-08-16T13:48:43.072Z,35.32
2022-08-16T13:51:16.605Z,35.39
2022-08-16T13:53:45.876Z,35.43
2022-08-16T13:56:24.932Z,35.37
2022-08-16T13:58:54.804Z,35.36
2022-08-16T14:01:22.378Z,35.40
2022-08-16T14:03:50.209Z,35.45
2022-08-16T14:06:21.821Z,35.51
2022-08-16T14:08:50.227Z,35.55
2022-08-16T14:11:26.468Z,35.52
2022-08-16T14:13:56.141Z,35.46
2022-08-16T14:16:33.962Z,35.37
2022-08-16T14:19:02.181Z,35.26
2022-08-16T14:21:35.242Z,35.17
2022-08-16T14:24:22.171Z,35.13
2022-08-16T14:26:52.646Z,35.16
2022-08-16T14:29:20.394Z,35.18
2022-08-16T14:31:53.474Z,35.15
2022-08-16T14:34:21.549Z,35.09
2022-08-16T14:36:53.229Z,34.97
2022-08-16T14:39:22.046Z,34.86
2022-08-16T14:41:53.775Z,34.75
2022-08-16T14:44:23.668Z,34.65
2022-08-16T14:46:52.969Z,34.55
2022-08-16T14:49:20.158Z,34.54
2022-08-16T14:51:48.660Z,34.55
2022-08-16T14:54:15.709Z,34.60
2022-08-16T14:56:46.888Z,34.67
2022-08-16T14:59:22.656Z,34.72
2022-08-16T15:01:57.592Z,34.80
2022-08-16T15:04:40.551Z,34.83
2022-08-16T15:07:16.643Z,34.85
2022-08-16T15:10:01.064Z,34.84
2022-08-16T15:12:31.077Z,34.81
2022-08-16T15:15:01.736Z,34.79
2022-08-16T15:17:39.432Z,34.76
2022-08-16T15:20:08.666Z,34.71
2022-08-16T15:22:43.534Z,34.67
2022-08-16T15:25:29.734Z,34.59
2022-08-16T15:27:58.499Z,34.60
2022-08-16T15:30:56.868Z,34.64
2022-08-16T15:33:19.567Z,34.70
2022-08-16T15:35:50.506Z,34.73
2022-08-16T15:38:43.524Z,34.74
2022-08-16T15:41:04.654Z,34.73
2022-08-16T15:43:38.872Z,34.69
2022-08-16T15:46:35.521Z,34.66
2022-08-16T15:49:15.570Z,34.59
2022-08-16T15:51:45.465Z,34.57
2022-08-16T15:54:20.901Z,34.54
2022-08-16T15:57:03.016Z,34.52
2022-08-16T15:59:49.208Z,34.51
2022-08-16T16:02:29.695Z,34.47
2022-08-16T16:05:01.910Z,34.44
2022-08-16T16:07:30.841Z,34.42
2022-08-16T16:10:00.255Z,34.38
2022-08-16T16:12:52.896Z,34.36
2022-08-16T16:15:18.759Z,34.31
2022-08-16T16:17:50.915Z,34.31
2022-08-16T16:20:21.563Z,34.24
2022-08-16T16:22:49.281Z,34.20
2022-08-16T16:25:18.097Z,34.17
2022-08-16T16:27:45.613Z,34.15
2022-08-16T16:30:33.513Z,34.14
2022-08-16T16:33:01.440Z,34.10
2022-08-16T16:35:32.664Z,34.06
2022-08-16T16:38:00.155Z,34.03
2022-08-16T16:40:32.598Z,34.02
2022-08-16T16:43:00.886Z,33.99
2022-08-16T16:45:33.345Z,33.96
2022-08-16T16:48:12.796Z,33.90
2022-08-16T16:50:45.224Z,33.85
2022-08-16T16:53:17.688Z,33.81
2022-08-16T16:55:52.227Z,33.79
2022-08-16T16:58:43.435Z,33.75
2022-08-16T17:01:20.973Z,33.67
2022-08-16T17:04:13.209Z,33.61
2022-08-16T17:06:53.434Z,33.49
2022-08-16T17:09:24.689Z,33.50
2022-08-16T17:11:55.481Z,33.48
2022-08-16T17:14:32.668Z,33.43
2022-08-16T17:19:54.271Z,33.31
2022-08-16T17:22:23.006Z,33.30
2022-08-16T17:24:52.681Z,33.25
2022-08-16T17:27:32.161Z,33.24
2022-08-16T17:30:15.606Z,33.21
2022-08-16T17:32:54.473Z,33.19
2022-08-16T17:35:33.705Z,33.18
2022-08-16T17:38:06.090Z,33.16
2022-08-16T17:39:26.422Z,33.38
2022-08-16T17:40:47.213Z,33.15
2022-08-16T17:43:43.886Z,33.13
2022-08-16T17:46:41.572Z,33.11
2022-08-16T17:49:00.850Z,33.09
2022-08-16T17:51:28.485Z,33.07
2022-08-16T17:53:55.802Z,33.05
2022-08-16T17:56:22.684Z,33.01
2022-08-16T17:58:49.528Z,32.98
2022-08-16T18:01:16.775Z,32.92
2022-08-16T18:04:07.283Z,32.86
2022-08-16T18:06:30.764Z,32.79
2022-08-16T18:09:02.674Z,32.72
2022-08-16T18:11:33.738Z,32.66
2022-08-16T18:14:00.610Z,32.58
2022-08-16T18:16:27.614Z,32.51
2022-08-16T18:18:54.414Z,32.43
2022-08-16T18:21:40.554Z,32.36
2022-08-16T18:24:09.033Z,32.27
2022-08-16T18:26:36.342Z,32.20
2022-08-16T18:29:04.025Z,32.13
2022-08-16T18:31:31.298Z,32.06
2022-08-16T18:33:58.185Z,31.99
2022-08-16T18:36:25.684Z,31.92
2022-08-16T18:38:53.606Z,31.85
2022-08-16T18:41:23.023Z,31.78
2022-08-16T18:44:22.885Z,31.71
2022-08-16T18:46:44.168Z,31.62
2022-08-16T18:49:14.927Z,31.56
2022-08-16T18:51:45.457Z,31.48
2022-08-16T18:54:16.279Z,31.43
2022-08-16T18:56:56.930Z,31.36
2022-08-16T18:59:28.116Z,31.28
2022-08-16T19:02:00.175Z,31.22
2022-08-16T19:04:55.532Z,31.16
2022-08-16T19:07:22.914Z,31.08
2022-08-16T19:09:57.517Z,31.02
2022-08-16T19:12:38.400Z,30.96
2022-08-16T19:15:19.381Z,30.92
2022-08-16T19:17:46.479Z,30.88
2022-08-16T19:20:18.187Z,30.84
2022-08-16T19:23:04.593Z,30.80
2022-08-16T19:25:49.193Z,30.75
2022-08-16T19:28:48.274Z,30.72
2022-08-16T19:31:24.525Z,30.65
2022-08-16T19:33:56.801Z,30.61
2022-08-16T19:36:35.462Z,30.57
2022-08-16T19:39:08.618Z,30.51
2022-08-16T19:41:38.487Z,30.47
2022-08-16T19:44:06.857Z,30.43
2022-08-16T19:46:34.445Z,30.38
2022-08-16T19:49:01.346Z,30.35
2022-08-16T19:51:28.231Z,30.27
2022-08-16T19:53:55.076Z,30.22
2022-08-16T19:56:24.561Z,30.20
2022-08-16T19:59:17.574Z,30.18
2022-08-16T20:01:42.366Z,30.14
2022-08-16T20:04:12.281Z,30.11
2022-08-16T20:06:40.560Z,30.08
2022-08-16T20:09:07.833Z,30.05
2022-08-16T20:11:35.514Z,30.02
2022-08-16T20:14:02.796Z,29.98
2022-08-16T20:16:29.863Z,29.94
2022-08-16T20:18:56.747Z,29.91
2022-08-16T20:21:24.205Z,29.88
2022-08-16T20:23:51.098Z,29.84
2022-08-16T20:26:18.710Z,29.82
2022-08-16T20:28:53.564Z,29.77
2022-08-16T20:31:22.807Z,29.73
2022-08-16T20:33:50.896Z,29.69
2022-08-16T20:36:17.716Z,29.66
2022-08-16T20:38:47.213Z,29.62
2022-08-16T20:41:16.067Z,29.58
2022-08-16T20:43:43.433Z,29.55
2022-08-16T20:46:10.643Z,29.51
2022-08-16T20:48:37.440Z,29.48
2022-08-16T20:51:06.678Z,29.45
2022-08-16T20:53:33.913Z,29.41
2022-08-16T20:56:00.681Z,29.35
2022-08-16T20:58:27.522Z,29.34
2022-08-16T21:00:54.411Z,29.31
2022-08-16T21:03:21.250Z,29.28
2022-08-16T21:05:48.029Z,29.26
2022-08-16T21:08:50.569Z,29.22
2022-08-16T21:11:05.433Z,29.18
2022-08-16T21:13:33.865Z,29.15
2022-08-16T21:16:02.498Z,29.13
2022-08-16T21:18:29.669Z,29.09
2022-08-16T21:20:56.597Z,29.07
2022-08-16T21:23:23.445Z,29.03
2022-08-16T21:25:59.122Z,29.00
2022-08-16T21:28:40.138Z,28.97
2022-08-16T21:31:15.301Z,28.92
2022-08-16T21:33:43.684Z,28.89
2022-08-16T21:36:11.769Z,28.85
2022-08-16T21:38:39.963Z,28.82
2022-08-16T21:41:08.744Z,28.78
2022-08-16T21:43:35.809Z,28.73
2022-08-16T21:46:04.561Z,28.69
2022-08-16T21:48:34.010Z,28.66
2022-08-16T21:51:11.341Z,28.61
2022-08-16T21:53:38.401Z,28.56
2022-08-16T21:56:06.901Z,28.52
2022-08-16T21:58:36.650Z,28.47
2022-08-16T22:01:04.249Z,28.43
2022-08-16T22:03:32.753Z,28.38
2022-08-16T22:06:12.964Z,28.36
2022-08-16T22:08:49.411Z,28.31
2022-08-16T22:11:23.801Z,28.27
2022-08-16T22:13:57.840Z,28.24
2022-08-16T22:16:33.638Z,28.20
2022-08-16T22:19:01.765Z,28.15
2022-08-16T22:21:29.896Z,28.13
2022-08-16T22:23:58.663Z,28.10
2022-08-16T22:26:33.833Z,28.07
2022-08-16T22:29:05.107Z,28.04
2022-08-16T22:31:32.960Z,28.00
2022-08-16T22:34:01.717Z,27.97
2022-08-16T22:36:30.482Z,27.94
2022-08-16T22:38:59.892Z,27.91
2022-08-16T22:41:32.171Z,27.89
2022-08-16T22:44:00.810Z,27.86
2022-08-16T22:46:27.700Z,27.82
2022-08-16T22:48:54.930Z,27.81
2022-08-16T22:51:24.813Z,27.77
2022-08-16T22:53:52.779Z,27.74
2022-08-16T22:56:20.093Z,27.70
2022-08-16T22:58:47.501Z,27.68
2022-08-16T23:01:16.810Z,27.66
2022-08-16T23:03:44.247Z,27.63
2022-08-16T23:06:13.674Z,27.60
2022-08-16T23:08:41.725Z,27.57
2022-08-16T23:11:12.727Z,27.53
2022-08-16T23:13:53.012Z,27.51
2022-08-16T23:16:33.459Z,27.48
2022-08-16T23:19:04.902Z,27.44
2022-08-16T23:21:32.783Z,27.41
2022-08-16T23:23:59.980Z,27.38
2022-08-16T23:26:46.564Z,27.36
2022-08-16T23:29:15.958Z,27.33
2022-08-16T23:31:54.412Z,27.29
2022-08-16T23:34:22.045Z,27.26
2022-08-16T23:36:48.861Z,27.25
2022-08-16T23:39:15.688Z,27.22
2022-08-16T23:41:43.775Z,27.20
2022-08-16T23:44:57.718Z,27.16
2022-08-16T23:46:57.377Z,27.13
2022-08-16T23:49:59.064Z,27.09
2022-08-16T23:52:11.361Z,27.07
2022-08-16T23:54:38.365Z,27.04
2022-08-16T23:57:05.364Z,27.01
2022-08-16T23:59:35.898Z,27.00
